Time;durP1;ratioP1;P1;durP2;ratioP2;P2;SDS_P1;SDS_P2;PMS_P1;PMS_P2;Temp;Humidity;BMP_temperature;BMP_pressure;BME280_temperature;BME280_humidity;BME280_pressure;Samples;Min_cycle;Max_cycle;Signal;HPM_P1;HPM_P2
2021/11/01 00:00:15;;;;;;;;;5.00;4.00;;;;;-147.17;100.00;49599.97;5050882;28;52687;-56
2021/11/01 00:02:42;;;;;;;;;5.00;5.00;;;;;-147.17;100.00;49611.78;5054900;28;51240;-57
2021/11/01 00:05:08;;;;;;;;;6.00;5.00;;;;;-147.17;100.00;49570.44;5051642;28;51146;-56
2021/11/01 00:07:33;;;;;;;;;21.00;16.25;;;;;-147.17;100.00;49586.19;5055299;28;51097;-56
2021/11/01 00:09:59;;;;;;;;;4.00;3.67;;;;;-147.17;100.00;49580.28;5054045;28;52087;-57
2021/11/01 00:12:29;;;;;;;;;2.00;2.00;;;;;-147.17;100.00;49570.44;5056110;28;53148;-57
2021/11/01 00:14:54;;;;;;;;;5.00;4.00;;;;;-147.17;100.00;49615.72;5054719;28;51301;-57
2021/11/01 00:17:20;;;;;;;;;3.00;3.00;;;;;-147.17;100.00;49603.91;5055162;28;51224;-58
2021/11/01 00:19:45;;;;;;;;;2.00;2.00;;;;;-147.17;100.00;49596.03;5054360;28;51181;-56
2021/11/01 00:22:11;;;;;;;;;3.00;3.00;;;;;-147.17;100.00;49596.03;5054929;28;51241;-57
2021/11/01 00:24:36;;;;;;;;;2.00;1.33;;;;;-147.17;100.00;49596.03;5054660;28;53212;-56
2021/11/01 00:27:02;;;;;;;;;3.00;2.00;;;;;-147.17;100.00;49592.09;5054580;28;51442;-56
2021/11/01 00:29:27;;;;;;;;;2.33;2.00;;;;;-147.17;100.00;49580.28;5035516;28;52882;-58
2021/11/01 00:31:53;;;;;;;;;3.00;2.67;;;;;-147.17;100.00;49590.13;5052736;28;51373;-57
2021/11/01 00:34:20;;;;;;;;;2.33;2.00;;;;;-147.17;100.00;49580.28;5054815;28;53295;-57
2021/11/01 00:36:46;;;;;;;;;4.33;3.00;;;;;-147.17;100.00;49588.16;5054033;28;51178;-57
2021/11/01 00:39:11;;;;;;;;;2.00;1.33;;;;;-147.17;100.00;49566.50;5053974;28;51979;-58
2021/11/01 00:41:37;;;;;;;;;4.67;4.33;;;;;-147.17;100.00;49611.78;5055118;28;51487;-57
2021/11/01 00:44:03;;;;;;;;;2.00;2.00;;;;;-147.17;100.00;49607.84;5054069;28;51370;-58
2021/11/01 00:46:28;;;;;;;;;4.00;4.00;;;;;-147.17;100.00;49594.06;5054593;28;51422;-57
2021/11/01 00:48:54;;;;;;;;;3.00;2.00;;;;;-147.17;100.00;49584.22;5016080;28;53434;-56
2021/11/01 00:51:19;;;;;;;;;7.67;6.67;;;;;-147.17;100.00;49592.09;5035499;28;51232;-57
2021/11/01 00:53:48;;;;;;;;;11.33;10.00;;;;;-147.17;100.00;49590.13;5054838;28;52307;-56
2021/11/01 00:56:15;;;;;;;;;1.67;1.33;;;;;-147.17;100.00;49562.56;5052015;28;51292;-56
2021/11/01 00:58:40;;;;;;;;;4.33;4.00;;;;;-147.17;100.00;49584.22;5053330;28;51858;-56
2021/11/01 01:01:06;;;;;;;;;2.00;1.33;;;;;-147.17;100.00;49584.22;5054390;28;51193;-56
2021/11/01 01:03:32;;;;;;;;;3.00;3.00;;;;;-147.17;100.00;49607.84;5060610;28;51324;-57
2021/11/01 01:06:00;;;;;;;;;3.00;2.00;;;;;-147.17;100.00;49617.69;5058818;28;51380;-58
2021/11/01 01:08:26;;;;;;;;;2.67;2.67;;;;;-147.17;100.00;49576.34;5038973;28;53079;-57
2021/11/01 01:10:52;;;;;;;;;3.00;2.00;;;;;-147.17;100.00;49592.09;5056192;28;53432;-57
2021/11/01 01:13:19;;;;;;;;;2.00;1.00;;;;;-147.17;100.00;49621.63;5057766;28;53301;-57
2021/11/01 01:18:33;;;;;;;;;2.00;1.00;;;;;-147.17;100.00;49582.25;5057405;28;51164;-58
2021/11/01 01:21:01;;;;;;;;;1.00;1.00;;;;;-147.17;100.00;49594.06;5057395;28;51438;-57
2021/11/01 01:23:27;;;;;;;;;1.00;1.00;;;;;-147.17;100.00;49592.09;5056484;28;52251;-58
2021/11/01 01:25:55;;;;;;;;;2.33;2.33;;;;;-147.17;100.00;49615.72;5059087;28;51293;-57
2021/11/01 01:28:25;;;;;;;;;1.67;1.33;;;;;-147.17;100.00;49599.97;5057544;28;53294;-57
2021/11/01 01:30:50;;;;;;;;;1.00;1.00;;;;;-147.17;100.00;49540.94;5055086;28;51152;-57
2021/11/01 01:33:16;;;;;;;;;2.00;1.00;;;;;-147.17;100.00;49572.41;5055740;28;51334;-58
2021/11/01 01:35:42;;;;;;;;;2.00;1.00;;;;;-147.17;100.00;49623.59;5056392;28;51083;-58
2021/11/01 01:38:09;;;;;;;;;2.00;2.00;;;;;-147.17;100.00;49625.56;5055257;28;52547;-57
2021/11/01 01:40:35;;;;;;;;;4.00;3.00;;;;;-147.17;100.00;49649.19;5056598;28;51299;-57
2021/11/01 01:43:03;;;;;;;;;1.00;1.00;;;;;-147.17;100.00;49617.69;5038883;28;51220;-58
2021/11/01 01:45:29;;;;;;;;;0.00;0.00;;;;;-147.17;100.00;49596.03;5057264;28;51335;-57
2021/11/01 01:47:54;;;;;;;;;3.33;2.67;;;;;-147.17;100.00;49584.22;5058211;28;51795;-56
2021/11/01 01:50:20;;;;;;;;;6.67;6.00;;;;;-147.17;100.00;49568.47;5056800;28;51186;-55
2021/11/01 01:52:49;;;;;;;;;3.00;1.00;;;;;-147.17;100.00;49613.75;5056608;28;51401;-55
2021/11/01 01:55:17;;;;;;;;;2.00;2.00;;;;;-147.17;100.00;49676.72;5057055;28;53311;-57
2021/11/01 01:57:43;;;;;;;;;1.67;1.00;;;;;-147.17;100.00;49625.56;5054955;28;51389;-57
2021/11/01 02:00:24;;;;;;;;;2.67;2.00;;;;;-147.17;100.00;49625.56;5055658;28;51133;-56
2021/11/01 02:02:50;;;;;;;;;2.00;2.00;;;;;-147.17;100.00;49615.72;5025907;28;51223;-57
2021/11/01 02:05:16;;;;;;;;;2.33;2.00;;;;;-147.17;100.00;49607.84;5055709;28;51429;-56
2021/11/01 02:07:51;;;;;;;;;2.00;2.00;;;;;-147.17;100.00;49635.41;5056915;28;52332;-56
2021/11/01 02:10:23;;;;;;;;;3.00;2.00;;;;;-147.17;100.00;49629.50;5039655;28;51322;-58
2021/11/01 02:12:57;;;;;;;;;1.00;1.00;;;;;-147.17;100.00;49641.31;5057449;28;51150;-56
2021/11/01 02:15:30;;;;;;;;;1.33;1.33;;;;;-147.17;100.00;49643.28;5056905;28;51324;-57
2021/11/01 02:17:57;;;;;;;;;0.67;0.67;;;;;-147.17;100.00;49659.03;5056162;28;53137;-56
2021/11/01 02:20:35;;;;;;;;;1.67;1.00;;;;;-147.17;100.00;49670.81;5057536;28;51245;-56
2021/11/01 02:23:16;;;;;;;;;0.67;0.67;;;;;-147.17;100.00;49649.19;5056562;28;52916;-56
2021/11/01 02:25:47;;;;;;;;;1.00;1.00;;;;;-147.17;100.00;49664.91;5056160;28;53331;-57
2021/11/01 02:28:40;;;;;;;;;3.00;2.67;;;;;-147.17;100.00;49645.25;5055494;28;51154;-57
2021/11/01 02:31:09;;;;;;;;;2.33;1.33;;;;;-147.17;100.00;49647.22;5053801;28;53286;-57
2021/11/01 02:33:35;;;;;;;;;0.33;0.33;;;;;-147.17;100.00;49666.88;5056586;28;51197;-57
2021/11/01 02:36:01;;;;;;;;;1.67;1.00;;;;;-147.17;100.00;49653.13;5056433;28;51197;-56
2021/11/01 02:38:31;;;;;;;;;2.00;1.00;;;;;-147.17;100.00;49647.22;5056244;28;52428;-57
2021/11/01 02:40:58;;;;;;;;;0.67;0.67;;;;;-147.17;100.00;49660.97;5055594;28;51250;-57
2021/11/01 02:43:26;;;;;;;;;2.00;1.00;;;;;-147.17;100.00;49690.50;5055616;28;51260;-58
2021/11/01 02:45:52;;;;;;;;;1.33;1.00;;;;;-147.17;100.00;49635.41;5037770;28;51447;-56
2021/11/01 02:48:18;;;;;;;;;1.00;1.00;;;;;-147.17;100.00;49670.81;5055828;28;51232;-57
2021/11/01 02:50:44;;;;;;;;;1.00;1.00;;;;;-147.17;100.00;49668.84;5055872;28;51519;-58
2021/11/01 02:53:10;;;;;;;;;0.00;0.00;;;;;-147.17;100.00;49655.09;5038524;28;51306;-57
2021/11/01 02:55:36;;;;;;;;;1.00;1.00;;;;;-147.17;100.00;49611.78;5056765;28;51383;-58
2021/11/01 02:58:02;;;;;;;;;1.00;1.00;;;;;-147.17;100.00;49633.44;5054535;28;53492;-57
2021/11/01 03:00:29;;;;;;;;;1.00;1.00;;;;;-147.17;100.00;49647.22;5056297;28;51137;-57
2021/11/01 03:02:55;;;;;;;;;0.00;0.00;;;;;-147.17;100.00;49643.28;5054569;28;51625;-57
2021/11/01 03:05:23;;;;;;;;;3.00;1.67;;;;;-147.17;100.00;49676.72;5056030;28;53300;-57
2021/11/01 03:07:52;;;;;;;;;1.00;1.00;;;;;-147.17;100.00;49672.78;5056428;28;52231;-57
2021/11/01 03:10:18;;;;;;;;;1.00;1.00;;;;;-147.17;100.00;49641.31;5056516;28;51355;-56
2021/11/01 03:12:46;;;;;;;;;2.00;2.00;;;;;-147.17;100.00;49684.59;5054818;28;52058;-57
2021/11/01 03:15:20;;;;;;;;;2.00;1.00;;;;;-147.17;100.00;49674.75;5056267;28;51520;-57
2021/11/01 03:17:51;;;;;;;;;1.33;1.00;;;;;-147.17;100.00;49682.63;5053598;28;52072;-57
2021/11/01 03:20:25;;;;;;;;;4.00;2.00;;;;;-147.17;100.00;49682.63;5059892;28;51171;-57
2021/11/01 03:22:56;;;;;;;;;0.00;0.00;;;;;-147.17;100.00;49645.25;5063366;28;50904;-55
2021/11/01 03:25:29;;;;;;;;;2.00;1.00;;;;;-147.17;100.00;49659.03;5073731;28;50871;-56
2021/11/01 03:27:56;;;;;;;;;1.00;0.33;;;;;-147.17;100.00;49725.94;5072555;28;51194;-56
2021/11/01 03:30:22;;;;;;;;;1.00;1.00;;;;;-147.17;100.00;49678.69;5064760;28;51113;-57
2021/11/01 03:32:49;;;;;;;;;1.00;1.00;;;;;-147.17;100.00;49659.03;5070402;28;51339;-56
2021/11/01 03:35:17;;;;;;;;;2.33;2.33;;;;;-147.17;100.00;49678.69;5066147;28;51025;-57
2021/11/01 03:37:45;;;;;;;;;1.00;1.00;;;;;-147.17;100.00;49668.84;5055759;28;51801;-56
2021/11/01 03:40:16;;;;;;;;;2.00;1.00;;;;;-147.17;100.00;49668.84;5071889;28;51022;-56
2021/11/01 03:42:42;;;;;;;;;0.50;0.50;;;;;-147.17;100.00;49668.84;5037985;28;51018;-57
2021/11/01 03:45:09;;;;;;;;;1.67;1.67;;;;;-147.17;100.00;49639.34;5054401;28;51299;-57
2021/11/01 03:47:39;;;;;;;;;2.00;1.00;;;;;-147.17;100.00;49647.22;5035652;28;52763;-59
2021/11/01 03:50:16;;;;;;;;;2.00;2.00;;;;;-147.17;100.00;49664.91;5059289;28;51215;-56
2021/11/01 03:52:44;;;;;;;;;1.00;1.00;;;;;-147.17;100.00;49686.56;5056626;28;51194;-56
2021/11/01 03:55:10;;;;;;;;;1.00;1.00;;;;;-147.17;100.00;49680.66;5073746;28;50951;-56
2021/11/01 03:57:36;;;;;;;;;0.33;0.33;;;;;-147.17;100.00;49629.50;5071154;28;51058;-58
2021/11/01 04:00:06;;;;;;;;;1.00;1.00;;;;;-147.17;100.00;49690.50;5053235;28;51057;-57
2021/11/01 04:02:32;;;;;;;;;3.00;2.00;;;;;-147.17;100.00;49657.06;5062344;28;51181;-56
2021/11/01 04:05:00;;;;;;;;;2.33;2.33;;;;;-147.17;100.00;49639.34;5071358;28;51337;-55
2021/11/01 04:07:26;;;;;;;;;1.67;1.00;;;;;-147.17;100.00;49674.75;5059524;28;52509;-56
2021/11/01 04:09:52;;;;;;;;;2.00;1.00;;;;;-147.17;100.00;49666.88;5073501;28;51120;-56
2021/11/01 04:12:17;;;;;;;;;1.00;1.00;;;;;-147.17;100.00;49670.81;5070651;28;51273;-57
2021/11/01 04:14:46;;;;;;;;;2.00;1.00;;;;;-147.17;100.00;49682.63;5063445;28;51288;-57
2021/11/01 04:17:22;;;;;;;;;1.00;1.00;;;;;-147.17;100.00;49698.38;5073026;28;52200;-56
2021/11/01 04:22:40;;;;;;;;;1.00;1.00;;;;;-147.17;100.00;49729.88;5050209;28;51184;-57
2021/11/01 04:25:06;;;;;;;;;0.67;0.67;;;;;-147.17;100.00;49690.50;5052770;28;50916;-56
2021/11/01 04:27:32;;;;;;;;;3.00;2.00;;;;;-147.17;100.00;49729.88;5054743;28;51789;-56
2021/11/01 04:30:00;;;;;;;;;1.00;1.00;;;;;-147.17;100.00;49649.19;5052589;28;50956;-56
2021/11/01 04:32:37;;;;;;;;;1.67;1.00;;;;;-147.17;100.00;49706.25;5055043;28;51095;-57
2021/11/01 04:35:13;;;;;;;;;0.00;0.00;;;;;-147.17;100.00;49664.91;5062800;28;50887;-57
2021/11/01 04:37:42;;;;;;;;;1.00;0.00;;;;;-147.17;100.00;49653.13;5036704;28;53478;-57
2021/11/01 04:43:32;;;;;;;;;0.00;0.00;;;;;-147.17;100.00;49708.22;5042902;28;51159;-57
2021/11/01 04:53:43;;;;;;;;;0.00;0.00;;;;;-147.17;100.00;49698.38;5061855;28;51291;-55
2021/11/01 04:56:08;;;;;;;;;0.00;0.00;;;;;-147.17;100.00;49725.94;5057113;28;52260;-57
2021/11/01 04:58:34;;;;;;;;;0.00;0.00;;;;;-147.17;100.00;49731.84;5052322;28;50920;-56
2021/11/01 05:01:00;;;;;;;;;0.00;0.00;;;;;-147.17;100.00;49686.56;5052441;28;51073;-56
2021/11/01 05:05:54;;;;;;;;;0.00;0.00;;;;;-147.17;100.00;49696.41;5073213;28;51398;-57
2021/11/01 05:08:23;;;;;;;;;0.00;0.00;;;;;-147.17;100.00;49666.88;5071558;28;51902;-57
2021/11/01 05:10:51;;;;;;;;;0.00;0.00;;;;;-147.17;100.00;49672.78;5059797;28;51046;-58
2021/11/01 05:13:23;;;;;;;;;0.33;0.33;;;;;-147.17;100.00;49666.88;5067936;28;51351;-56
2021/11/01 05:15:58;;;;;;;;;1.00;1.00;;;;;-147.17;100.00;49678.69;5072497;28;51329;-57
2021/11/01 05:18:35;;;;;;;;;0.00;0.00;;;;;-147.17;100.00;49641.31;5072365;28;50976;-57
2021/11/01 05:23:49;;;;;;;;;0.00;0.00;;;;;-147.17;100.00;49664.91;5071330;28;51077;-57
2021/11/01 05:29:01;;;;;;;;;0.00;0.00;;;;;-147.17;100.00;49666.88;5056355;28;51080;-57
2021/11/01 05:31:28;;;;;;;;;0.00;0.00;;;;;-147.17;100.00;49680.66;5057501;28;51127;-56
2021/11/01 05:34:02;;;;;;;;;0.00;0.00;;;;;-147.17;100.00;49714.13;5061962;28;51347;-57
2021/11/01 05:36:28;;;;;;;;;0.00;0.00;;;;;-147.17;100.00;49647.22;5068891;28;50946;-57
2021/11/01 05:38:54;;;;;;;;;0.00;0.00;;;;;-147.17;100.00;49670.81;5066695;28;51115;-57
2021/11/01 05:41:20;;;;;;;;;1.00;1.00;;;;;-147.17;100.00;49674.75;5066528;28;51125;-57
2021/11/01 05:43:47;;;;;;;;;0.00;0.00;;;;;-147.17;100.00;49662.94;5065258;28;51114;-58
2021/11/01 05:46:13;;;;;;;;;1.00;0.00;;;;;-147.17;100.00;49698.38;5066281;28;51383;-57
2021/11/01 05:48:46;;;;;;;;;3.67;3.67;;;;;-147.17;100.00;49629.50;5064044;28;52976;-57
2021/11/01 05:51:15;;;;;;;;;6.00;5.00;;;;;-147.17;100.00;49637.38;5060217;28;51109;-58
2021/11/01 05:53:41;;;;;;;;;16.50;12.50;;;;;-147.17;100.00;49666.88;5045388;28;51103;-57
2021/11/01 05:56:30;;;;;;;;;0.00;0.00;;;;;-147.17;100.00;49647.22;5069038;28;50988;-57
2021/11/01 06:02:11;;;;;;;;;9.25;7.75;;;;;-147.17;100.00;49680.66;5069467;28;51160;-57
2021/11/01 06:05:06;;;;;;;;;5.00;4.00;;;;;-147.17;100.00;49659.03;5059591;28;52606;-57
2021/11/01 06:14:57;;;;;;;;;0.00;0.00;;;;;-147.17;100.00;49639.34;5067731;28;51249;-57
2021/11/01 06:17:22;;;;;;;;;0.67;0.67;;;;;-147.17;100.00;49670.81;5069591;28;51271;-57
2021/11/01 06:19:48;;;;;;;;;0.00;0.00;;;;;-147.17;100.00;49666.88;5068203;28;50950;-56
2021/11/01 06:22:14;;;;;;;;;1.33;1.00;;;;;-147.17;100.00;49662.94;5063301;28;51135;-57
2021/11/01 06:24:59;;;;;;;;;1.00;1.00;;;;;-147.17;100.00;49678.69;5063405;28;51162;-55
2021/11/01 06:27:25;;;;;;;;;0.33;0.33;;;;;-147.17;100.00;49676.72;5065703;28;51100;-56
2021/11/01 06:30:10;;;;;;;;;1.67;1.00;;;;;-147.17;100.00;49666.88;5065118;28;52809;-55
2021/11/01 06:32:43;;;;;;;;;0.00;0.00;;;;;-147.17;100.00;49686.56;5070600;28;50958;-57
2021/11/01 07:16:50;;;;;;;;;0.00;0.00;;;;;-147.17;100.00;49698.38;5063937;28;51106;-58
2021/11/01 07:30:21;;;;;;;;;0.00;0.00;;;;;-147.17;100.00;49653.13;5066149;28;51481;-56
2021/11/01 08:22:01;;;;;;;;;2.00;1.00;;;;;-147.17;100.00;50184.56;5062435;28;51047;-59
2021/11/01 08:24:47;;;;;;;;;1.00;0.67;;;;;-147.17;100.00;50094.00;5059240;28;51125;-60
2021/11/01 08:46:00;;;;;;;;;1.67;1.00;;;;;-147.17;80.95;51092.13;5070506;27;51146;-74
2021/11/01 09:04:47;;;;;;;;;0.67;0.67;;;;;-147.17;70.48;51194.53;5069333;27;52852;-62
2021/11/01 09:26:14;;;;;;;;;0.00;0.00;;;;;-147.17;89.26;50905.09;5051624;28;51189;-67
2021/11/01 09:36:56;;;;;;;;;0.33;0.00;;;;;-147.17;94.45;50822.41;5068774;28;51136;-68
2021/11/01 09:42:23;;;;;;;;;1.00;1.00;;;;;-147.17;97.52;50775.16;5032526;28;51212;-68
2021/11/01 09:44:50;;;;;;;;;1.33;1.33;;;;;-147.17;99.04;50745.63;5047561;28;53744;-69
2021/11/01 09:47:17;;;;;;;;;1.00;1.00;;;;;-147.17;98.83;50769.25;5059206;28;51160;-70
2021/11/01 09:49:43;;;;;;;;;1.00;1.00;;;;;-147.17;98.21;50729.88;5074401;28;51131;-74
2021/11/01 09:52:10;;;;;;;;;3.00;1.00;;;;;-147.17;99.38;50716.09;5075455;28;51138;-75
2021/11/01 09:54:37;;;;;;;;;1.67;1.00;;;;;-147.17;100.00;50674.75;5074403;28;51134;-72
2021/11/01 09:57:18;;;;;;;;;1.67;1.00;;;;;-147.17;100.00;50670.81;5064836;28;50926;-71
2021/11/01 09:59:44;;;;;;;;;1.00;1.00;;;;;-147.17;100.00;50627.50;5073683;28;50845;-69
2021/11/01 10:02:12;;;;;;;;;1.00;1.00;;;;;-147.17;100.00;50611.75;5067808;28;51487;-70
2021/11/01 10:04:41;;;;;;;;;1.00;0.33;;;;;-147.17;100.00;50576.31;5055271;28;53075;-69
2021/11/01 10:07:24;;;;;;;;;1.00;0.00;;;;;-147.17;100.00;50507.41;5064370;28;51045;-70
2021/11/01 10:09:54;;;;;;;;;1.00;1.00;;;;;-147.17;100.00;50470.00;5070616;28;51192;-70
2021/11/01 10:12:32;;;;;;;;;0.00;0.00;;;;;-147.17;100.00;50418.81;5075362;28;51364;-71
2021/11/01 10:17:33;;;;;;;;;1.00;1.00;;;;;-147.17;100.00;50332.19;5054904;28;53925;-71
2021/11/01 10:17:57;;;;;;;;;2.00;2.00;;;;;-147.17;100.00;50306.63;5054951;28;51051;-71
2021/11/01 10:20:23;;;;;;;;;1.00;1.00;;;;;-147.17;100.00;50214.09;5056213;28;51198;-70
2021/11/01 10:22:48;;;;;;;;;5.00;4.00;;;;;-147.17;100.00;50194.41;5074512;28;51252;-70
2021/11/01 10:25:18;;;;;;;;;1.00;1.00;;;;;-147.17;100.00;50133.38;5058042;28;53648;-71
2021/11/01 10:27:51;;;;;;;;;2.00;1.00;;;;;-147.17;100.00;50046.78;5071447;28;50639;-70
2021/11/01 10:30:22;;;;;;;;;0.33;0.00;;;;;-147.17;100.00;50072.38;5050502;28;51195;-70
2021/11/01 10:32:51;;;;;;;;;3.00;0.00;;;;;-147.17;100.00;50048.75;5053001;28;51392;-71
2021/11/01 10:35:21;;;;;;;;;0.00;0.00;;;;;-147.17;100.00;50046.78;5072648;28;52442;-71
2021/11/01 11:14:22;;;;;;;;;0.67;0.00;;;;;-147.17;98.24;50320.38;5064491;28;51110;-72
2021/11/01 11:19:50;;;;;;;;;2.00;1.00;;;;;-147.17;97.98;50340.06;5073137;28;51711;-69
2021/11/01 11:27:59;;;;;;;;;2.00;1.33;;;;;-147.17;97.87;50391.25;5072655;28;51107;-71
2021/11/01 11:49:28;;;;;;;;;2.00;1.00;;;;;-147.17;94.82;50454.25;5072888;28;51164;-66
2021/11/01 11:51:59;;;;;;;;;1.00;1.00;;;;;-147.17;94.21;50483.78;5057018;28;51758;-73
2021/11/01 11:54:37;;;;;;;;;3.00;3.00;;;;;-147.17;95.42;50450.31;5073179;28;51257;-72
2021/11/01 11:57:04;;;;;;;;;0.33;0.33;;;;;-147.17;95.48;50414.88;5071437;28;50860;-71
2021/11/01 11:59:36;;;;;;;;;1.33;1.00;;;;;-147.17;96.19;50420.78;5049956;28;51363;-72
2021/11/01 12:02:10;;;;;;;;;2.00;2.00;;;;;-147.17;96.27;50426.69;5050879;28;53359;-73
2021/11/01 12:04:48;;;;;;;;;2.67;2.00;;;;;-147.17;96.61;50410.94;5072148;28;51186;-73
2021/11/01 12:07:16;;;;;;;;;1.67;1.00;;;;;-147.17;96.57;50458.19;5074380;27;51057;-73
2021/11/01 12:10:00;;;;;;;;;3.00;2.00;;;;;-147.17;96.57;50407.00;5074146;28;51454;-73
2021/11/01 12:17:48;;;;;;;;;2.00;1.00;;;;;-147.17;96.02;50424.72;5071717;27;51171;-72
2021/11/01 12:20:13;;;;;;;;;3.00;2.00;;;;;-147.17;95.67;50426.69;5073565;28;51322;-72
2021/11/01 12:22:43;;;;;;;;;1.67;1.00;;;;;-147.17;95.50;50442.44;5072292;28;51179;-74
2021/11/01 12:25:13;;;;;;;;;1.00;1.00;;;;;-147.17;94.82;50479.84;5072838;28;50869;-73
2021/11/01 12:27:45;;;;;;;;;2.67;2.00;;;;;-147.17;95.05;50428.66;5049278;28;51145;-73
2021/11/01 12:30:17;;;;;;;;;1.33;1.33;;;;;-147.17;95.08;50485.75;5065974;27;51552;-72
2021/11/01 12:32:43;;;;;;;;;2.33;1.33;;;;;-147.17;94.33;50507.41;5049611;28;52078;-72
2021/11/01 12:35:18;;;;;;;;;1.00;0.33;;;;;-147.17;94.02;50468.03;5061960;28;51015;-72
2021/11/01 12:37:57;;;;;;;;;2.00;1.00;;;;;-147.17;94.03;50485.75;5056102;28;51140;-72
2021/11/01 12:40:36;;;;;;;;;1.00;1.00;;;;;-147.17;94.31;50495.59;5066442;28;51156;-73
2021/11/01 12:59:11;;;;;;;;;1.00;1.00;;;;;-147.17;98.52;50410.94;5071886;28;51582;-74
2021/11/01 13:01:39;;;;;;;;;2.67;2.33;;;;;-147.17;100.00;50324.31;5063037;27;51034;-74
2021/11/01 13:04:22;;;;;;;;;1.00;1.00;;;;;-147.17;100.00;50261.34;5067320;27;51981;-74
2021/11/01 13:09:34;;;;;;;;;1.33;1.33;;;;;-147.17;100.00;50225.91;5072068;28;50827;-73
2021/11/01 13:14:48;;;;;;;;;2.33;2.33;;;;;-147.17;100.00;50151.09;5071605;28;51751;-73
2021/11/01 13:20:04;;;;;;;;;3.00;2.67;;;;;-147.17;100.00;50105.81;5071000;28;51152;-74
2021/11/01 13:22:31;;;;;;;;;3.00;2.00;;;;;-147.17;100.00;50066.47;5054364;28;51246;-73
2021/11/01 13:25:20;;;;;;;;;3.00;3.00;;;;;-147.17;100.00;49981.81;5072363;28;52210;-73
2021/11/01 13:28:02;;;;;;;;;4.00;4.00;;;;;-147.17;100.00;49968.03;5053479;28;51089;-73
2021/11/01 13:39:04;;;;;;;;;4.67;4.00;;;;;-147.17;100.00;49853.88;5075641;28;51104;-74
2021/11/01 13:41:30;;;;;;;;;6.33;5.67;;;;;-147.17;100.00;49816.47;5066464;28;51186;-73
2021/11/01 13:44:10;;;;;;;;;6.00;5.00;;;;;-147.17;100.00;49812.53;5078228;28;50951;-74
2021/11/01 13:46:51;;;;;;;;;3.00;2.00;;;;;-147.17;100.00;49804.66;5076908;28;53708;-73
2021/11/01 13:49:19;;;;;;;;;3.00;3.00;;;;;-147.17;100.00;49808.59;5074445;28;51159;-74
2021/11/01 13:51:47;;;;;;;;;5.00;4.00;;;;;-147.17;100.00;49849.94;5073163;28;51110;-73
2021/11/01 13:56:42;;;;;;;;;5.00;5.00;;;;;-147.17;100.00;49786.94;5071884;28;51554;-75
2021/11/01 14:18:16;;;;;;;;;6.00;5.00;;;;;-147.17;100.00;49475.97;5074082;28;51681;-75
2021/11/01 14:28:41;;;;;;;;;1.00;1.00;;;;;-147.17;100.00;49497.63;5066611;28;51412;-74
2021/11/01 14:34:07;;;;;;;;;2.00;1.00;;;;;-147.17;100.00;49572.41;5069765;28;51116;-74
2021/11/01 15:20:44;;;;;;;;;2.00;2.00;;;;;-147.17;100.00;49572.41;5071162;28;51152;-74
2021/11/01 15:31:05;;;;;;;;;0.00;0.00;;;;;-147.17;100.00;49544.88;5072244;28;51132;-73
2021/11/01 16:19:24;;;;;;;;;2.33;2.33;;;;;-147.17;100.00;49568.47;5069471;28;51247;-68
2021/11/01 16:21:50;;;;;;;;;2.00;2.00;;;;;-147.17;100.00;49588.16;5048947;28;51347;-70
2021/11/01 16:24:16;;;;;;;;;3.00;2.00;;;;;-147.17;100.00;49584.22;5046797;28;51077;-68
2021/11/01 16:26:44;;;;;;;;;3.33;3.00;;;;;-147.17;100.00;49605.88;5067902;28;51197;-68
2021/11/01 16:29:12;;;;;;;;;3.00;3.00;;;;;-147.17;100.00;49601.94;5069477;28;51139;-68
2021/11/01 16:31:53;;;;;;;;;2.00;2.00;;;;;-147.17;100.00;49599.97;5071404;28;51098;-68
2021/11/01 16:34:22;;;;;;;;;4.00;3.00;;;;;-147.17;100.00;49598.00;5052572;28;51351;-68
2021/11/01 16:39:28;;;;;;;;;4.00;3.00;;;;;-147.17;100.00;49572.41;5071383;28;51249;-68
2021/11/01 16:41:55;;;;;;;;;4.67;4.00;;;;;-147.17;100.00;49588.16;5069383;28;51120;-68
2021/11/01 16:44:32;;;;;;;;;6.00;4.33;;;;;-147.17;100.00;49588.16;5071347;28;51156;-69
2021/11/01 16:46:58;;;;;;;;;6.00;6.00;;;;;-147.17;100.00;49598.00;5070321;28;52188;-68
2021/11/01 16:49:27;;;;;;;;;3.33;3.33;;;;;-147.17;100.00;49574.38;5052325;28;51093;-68
2021/11/01 16:51:53;;;;;;;;;3.00;3.00;;;;;-147.17;100.00;49590.13;5067499;28;51117;-70
2021/11/01 16:54:25;;;;;;;;;5.00;5.00;;;;;-147.17;100.00;49615.72;5066677;27;50849;-69
2021/11/01 17:02:18;;;;;;;;;4.00;3.00;;;;;-147.17;100.00;49572.41;5060918;28;51253;-69
2021/11/01 17:05:00;;;;;;;;;3.33;3.33;;;;;-147.17;100.00;49599.97;5069058;28;51160;-68
2021/11/01 17:07:58;;;;;;;;;2.00;2.00;;;;;-147.17;100.00;49605.88;5069052;28;51328;-69
2021/11/01 17:37:20;;;;;;;;;7.00;6.67;;;;;-147.17;100.00;49633.44;5051618;28;51189;-70
2021/11/01 18:40:55;;;;;;;;;11.33;9.33;;;;;-147.17;100.00;49666.88;5073779;28;51183;-70
2021/11/01 18:51:20;;;;;;;;;13.00;12.00;;;;;-147.17;100.00;49651.16;5072978;28;51077;-70
2021/11/01 18:54:17;;;;;;;;;8.25;7.75;;;;;-147.17;100.00;49660.97;5055932;28;51153;-70
2021/11/01 18:56:44;;;;;;;;;12.25;11.50;;;;;-147.17;100.00;49668.84;5046461;28;51644;-69
2021/11/01 18:59:10;;;;;;;;;18.75;17.50;;;;;-147.17;100.00;49651.16;5068965;28;52399;-69
2021/11/01 19:01:39;;;;;;;;;10.75;9.25;;;;;-147.17;100.00;49643.28;5068920;28;51374;-69
2021/11/01 19:04:14;;;;;;;;;14.00;13.75;;;;;-147.17;100.00;49659.03;5064159;28;51188;-69
2021/11/01 19:06:51;;;;;;;;;14.75;14.00;;;;;-147.17;100.00;49641.31;5055894;28;53085;-68
2021/11/01 19:09:26;;;;;;;;;15.00;14.00;;;;;-147.17;100.00;49659.03;5060492;28;51165;-68
2021/11/01 20:16:06;;;;;;;;;16.75;16.75;;;;;-147.17;100.00;49702.31;5073360;28;51013;-69
2021/11/01 21:25:21;;;;;;;;;14.75;14.25;;;;;-147.17;100.00;49775.16;5071342;28;51205;-73
2021/11/01 21:27:48;;;;;;;;;11.00;11.00;;;;;-147.17;100.00;49735.78;5071805;28;51495;-70
2021/11/01 21:30:14;;;;;;;;;14.50;14.00;;;;;-147.17;100.00;49763.34;5056115;27;51163;-71
2021/11/01 21:32:40;;;;;;;;;11.00;10.25;;;;;-147.17;100.00;49743.66;5046965;28;51835;-72
2021/11/01 21:35:10;;;;;;;;;7.33;7.33;;;;;-147.17;100.00;49767.28;5066168;28;51132;-71
2021/11/01 21:37:36;;;;;;;;;11.00;10.75;;;;;-147.17;100.00;49761.38;5072770;28;51120;-73
2021/11/01 21:40:04;;;;;;;;;9.00;9.00;;;;;-147.17;100.00;49731.84;5064695;28;51639;-72
2021/11/01 21:42:31;;;;;;;;;8.00;6.67;;;;;-147.17;100.00;49757.44;5061306;28;51201;-70
2021/11/01 21:44:57;;;;;;;;;10.00;10.00;;;;;-147.17;100.00;49759.41;5063594;28;51196;-72
2021/11/01 21:47:22;;;;;;;;;6.67;6.67;;;;;-147.17;100.00;49733.81;5070888;28;51478;-72
2021/11/01 21:49:48;;;;;;;;;9.00;7.00;;;;;-147.17;100.00;49733.81;5060137;27;51824;-71
2021/11/01 21:52:15;;;;;;;;;5.33;5.33;;;;;-147.17;100.00;49749.56;5067887;28;51240;-72
2021/11/01 21:54:47;;;;;;;;;5.67;5.33;;;;;-147.17;100.00;49735.78;5050569;28;51385;-73
2021/11/01 21:57:17;;;;;;;;;9.00;7.00;;;;;-147.17;100.00;49690.50;5067529;27;51053;-72
2021/11/01 22:16:38;;;;;;;;;10.75;10.75;;;;;-147.17;100.00;49739.72;5057336;28;51543;-72
2021/11/01 22:21:41;;;;;;;;;9.67;8.00;;;;;-147.17;100.00;49735.78;5068354;28;51200;-72
2021/11/01 22:24:26;;;;;;;;;7.00;7.00;;;;;-147.17;100.00;49739.72;5071710;28;51058;-70
2021/11/01 22:43:00;;;;;;;;;11.00;10.00;;;;;-147.17;100.00;49753.50;5066121;28;51662;-70
2021/11/01 22:48:34;;;;;;;;;7.67;7.67;;;;;-147.17;100.00;49739.72;5048601;28;51304;-70
2021/11/01 22:57:04;;;;;;;;;9.00;6.00;;;;;-147.17;100.00;49745.63;4998469;28;51329;-72
2021/11/01 22:59:29;;;;;;;;;6.00;6.00;;;;;-147.17;100.00;49714.13;4982278;28;51182;-72
2021/11/01 23:01:56;;;;;;;;;6.00;5.00;;;;;-147.17;100.00;49753.50;5035594;28;51259;-71
2021/11/01 23:31:43;;;;;;;;;5.00;4.00;;;;;-147.17;100.00;49735.78;5066332;28;51219;-68
2021/11/01 23:34:12;;;;;;;;;4.00;4.00;;;;;-147.17;100.00;49749.56;5065132;28;50991;-69
2021/11/01 23:36:39;;;;;;;;;3.33;3.33;;;;;-147.17;100.00;49745.63;5072327;28;51302;-70
2021/11/01 23:39:09;;;;;;;;;3.33;3.00;;;;;-147.17;100.00;49745.63;5053986;28;51350;-71
2021/11/01 23:41:36;;;;;;;;;4.00;4.00;;;;;-147.17;100.00;49737.75;5054378;27;51459;-69